Terminal Aerodrome Forecast
Issued by NWS

Current Version | Previous Version | Text Only | Print | Product List | Glossary Off
Versions: 1 2 3 4 5 6 7 8 9 10 11 12 13 14 15 16

000
FTUS41 KILN 251126
TAFLCK
TAF
KLCK 251126Z 2512/2612 19009KT P6SM SCT150 OVC250
     FM252300 13006KT P6SM BKN140
     FM260600 13006KT P6SM BKN100
     FM260900 14006KT P6SM -SHRA SCT040 OVC090=

USA.gov is the U.S. government's official web portal to all federal, state and local government web resources and services.